Holton, IN (47023)

4:33 PM EDT on April 18, 2015 (GMT -0400)
RAWS | | Change Station
CLOSE
Current Station
Personal Weather Station
Location: Canaan, IN
Elevation: 899 ft
Nearby Weather Stations

Elev 899 ft 38.93 °N, 85.36 °W | Updated 46 minutes ago

Mostly Cloudy
Mostly Cloudy
79 °F
Feels Like 78 °F
N
8
Wind Variable Wind from ENE
Gusts 16.0 mph

Today
High -- | Low -- °F
--% Chance of Precip.
Yesterday
High -- | Low -- °F
Precip. -- in
7:00 AM 8:21 PM
New Moon, 0% visible
Pressure 30.01 in
Visibility 10.0 miles
Clouds Scattered Clouds 4000 ft
Mostly Cloudy 8000 ft
Mostly Cloudy 23000 ft
Heat Index 78 °F
Dew Point 43 °F
Humidity 28%
Rainfall in
Snow Depth Not available.
UV 4 out of 12
Pollen 11.40 out of 12
Air Quality Not available.
Flu Activity Local Activity
METAR KBAK 181946Z 10006KT 10SM SCT040 BKN080 BKN230 24/02 A3001

More Conditions Fewer Conditions

Pressure 30.01 in
Visibility 10.0 miles
Clouds Scattered Clouds 4000 ft
Mostly Cloudy 8000 ft
Mostly Cloudy 23000 ft
Heat Index 78 °F
Dew Point 43 °F
Humidity 28%
Rainfall in
Snow Depth Not available.
UV 4 out of 12
Pollen 11.40 out of 12
Air Quality Not available.
Flu Activity Local Activity
METAR KBAK 181946Z 10006KT 10SM SCT040 BKN080 BKN230 24/02 A3001

More Conditions Fewer Conditions

10-Day Weather Forecast

Almanac

Astronomy

Apr. 18, 2015 Rise Set
Actual Time
Civil Twilight
Nautical Twilight
Astronomical Twilight
Moon
Length of Visible Light
Length of Day
Tomorrow will be .
, % of the Moon is Illuminated

Today's Extremes

State Highs State Lows

Community

WunderPhotos

Upload Photos

1,814,519 photos uploaded!

WunderBlogs® & News

Nearby

Air Quality

  Air Quality AQ Index Pollutant
Not available.

Snow Depth

Station Depth Elevation

Earthquake Activity

City Distance Mag. Time & Date
Minimum magnitude displayed is 2.5.

Coastal Water Temperatures

Place Temperature

Stations

Nearby Weather Stations

Station Location Temp. Windchill Dew Point Humidity Wind Precip. Elev Updated Type